createdAt,value
2022-08-16T00:00:39.548Z,99198.09
2022-08-16T00:03:07.385Z,99198.03
2022-08-16T00:05:48.253Z,99191.41
2022-08-16T00:08:35.777Z,99191.41
2022-08-16T00:11:04.839Z,99201.72
2022-08-16T00:13:33.690Z,99209.22
2022-08-16T00:17:01.303Z,99209.22
2022-08-16T00:18:55.506Z,99210.28
2022-08-16T00:21:23.310Z,99206.53
2022-08-16T00:23:50.003Z,99209.53
2022-08-16T00:26:34.835Z,99206.38
2022-08-16T00:29:04.758Z,99212.69
2022-08-16T00:31:58.991Z,99213.84
2022-08-16T00:34:22.597Z,99209.22
2022-08-16T00:37:09.365Z,99203.41
2022-08-16T00:39:36.121Z,99204.47
2022-08-16T00:42:03.207Z,99203.88
2022-08-16T00:44:32.608Z,99207.84
2022-08-16T00:47:06.478Z,99205.69
2022-08-16T00:49:39.416Z,99202.84
2022-08-16T00:52:29.759Z,99200.88
2022-08-16T00:54:59.698Z,99207.03
2022-08-16T00:57:27.523Z,99217.84
2022-08-16T01:00:19.985Z,99208.47
2022-08-16T01:02:51.020Z,99209.53
2022-08-16T01:05:18.982Z,99214.69
2022-08-16T01:07:53.238Z,99210.56
2022-08-16T01:10:32.932Z,99214.88
2022-08-16T01:13:12.215Z,99226.69
2022-08-16T01:15:45.647Z,99226.22
2022-08-16T01:18:40.558Z,99225.16
2022-08-16T01:21:33.826Z,99220.38
2022-08-16T01:24:52.613Z,99223.91
2022-08-16T01:27:08.513Z,99222.25
2022-08-16T01:29:58.211Z,99227.47
2022-08-16T01:32:33.472Z,99229.22
2022-08-16T01:35:30.594Z,99233.69
2022-08-16T01:38:25.923Z,99229.69
2022-08-16T01:41:04.834Z,99233.59
2022-08-16T01:43:34.674Z,99225.88
2022-08-16T01:46:30.103Z,99237.28
2022-08-16T01:53:26.631Z,99231.56
2022-08-16T01:56:03.755Z,99230.06
2022-08-16T01:58:33.346Z,99233.66
2022-08-16T02:01:00.525Z,99229.47
2022-08-16T02:03:29.584Z,99228.25
2022-08-16T02:05:56.391Z,99231.75
2022-08-16T02:08:33.524Z,99225.38
2022-08-16T02:11:04.757Z,99225.41
2022-08-16T02:13:33.107Z,99223.31
2022-08-16T02:16:01.598Z,99217.72
2022-08-16T02:18:28.775Z,99216.06
2022-08-16T02:20:59.548Z,99222.50
2022-08-16T02:23:26.485Z,99216.94
2022-08-16T02:25:56.532Z,99213.66
2022-08-16T02:28:26.189Z,99211.75
2022-08-16T02:30:55.234Z,99219.66
2022-08-16T02:33:24.479Z,99212.41
2022-08-16T02:35:55.191Z,99213.25
2022-08-16T02:38:29.043Z,99222.00
2022-08-16T02:41:00.819Z,99221.56
2022-08-16T02:43:33.217Z,99221.56
2022-08-16T02:46:07.410Z,99215.53
2022-08-16T02:48:38.468Z,99218.84
2022-08-16T02:51:10.661Z,99221.41
2022-08-16T02:53:44.639Z,99216.72
2022-08-16T02:56:16.912Z,99211.75
2022-08-16T02:58:45.431Z,99214.00
2022-08-16T03:01:23.990Z,99202.59
2022-08-16T03:04:41.057Z,99202.00
2022-08-16T03:06:43.165Z,99204.47
2022-08-16T03:09:20.178Z,99204.75
2022-08-16T03:11:51.699Z,99210.97
2022-08-16T03:14:21.425Z,99202.84
2022-08-16T03:16:59.693Z,99197.69
2022-08-16T03:19:46.828Z,99199.97
2022-08-16T03:22:28.936Z,99200.22
2022-08-16T03:25:07.669Z,99196.91
2022-08-16T03:27:36.622Z,99198.97
2022-08-16T03:30:21.594Z,99195.63
2022-08-16T03:33:04.315Z,99196.41
2022-08-16T03:35:40.132Z,99202.91
2022-08-16T03:38:34.017Z,99201.47
2022-08-16T03:41:14.386Z,99198.78
2022-08-16T03:43:55.641Z,99197.78
2022-08-16T03:46:47.217Z,99200.22
2022-08-16T03:49:14.506Z,99206.03
2022-08-16T03:51:44.512Z,99207.31
2022-08-16T03:54:18.836Z,99210.63
2022-08-16T03:56:56.834Z,99200.25
2022-08-16T03:59:25.091Z,99200.28
2022-08-16T04:01:53.773Z,99198.84
2022-08-16T04:04:32.285Z,99205.50
2022-08-16T04:07:00.467Z,99203.19
2022-08-16T04:09:35.472Z,99196.34
2022-08-16T04:12:11.040Z,99203.19
2022-08-16T04:14:54.408Z,99202.13
2022-08-16T04:17:21.942Z,99201.28
2022-08-16T04:19:51.622Z,99191.31
2022-08-16T04:22:28.151Z,99198.28
2022-08-16T04:25:01.852Z,99207.16
2022-08-16T04:27:35.221Z,99208.63
2022-08-16T04:30:04.311Z,99209.44
2022-08-16T04:32:42.702Z,99219.84
2022-08-16T04:35:18.187Z,99223.56
2022-08-16T04:37:48.156Z,99223.50
2022-08-16T04:40:25.430Z,99226.41
2022-08-16T04:42:55.618Z,99228.69
2022-08-16T04:45:36.340Z,99229.97
2022-08-16T04:48:10.314Z,99226.63
2022-08-16T04:50:50.393Z,99224.94
2022-08-16T04:53:20.656Z,99223.28
2022-08-16T04:55:53.338Z,99226.00
2022-08-16T04:58:44.781Z,99229.31
2022-08-16T05:01:17.642Z,99227.19
2022-08-16T05:04:00.522Z,99229.44
2022-08-16T05:06:42.055Z,99228.00
2022-08-16T05:09:18.780Z,99234.84
2022-08-16T05:11:57.456Z,99236.28
2022-08-16T05:14:45.618Z,99244.59
2022-08-16T05:17:17.287Z,99251.19
2022-08-16T05:19:46.756Z,99251.84
2022-08-16T05:22:30.100Z,99257.41
2022-08-16T05:25:08.677Z,99257.19
2022-08-16T05:27:43.128Z,99253.47
2022-08-16T05:30:34.792Z,99253.06
2022-08-16T05:33:00.967Z,99254.47
2022-08-16T05:35:28.382Z,99248.09
2022-08-16T05:38:32.665Z,99263.81
2022-08-16T05:41:09.546Z,99266.28
2022-08-16T05:43:43.693Z,99266.28
2022-08-16T05:46:29.564Z,99273.38
2022-08-16T05:49:08.692Z,99277.13
2022-08-16T05:51:38.754Z,99274.34
2022-08-16T05:54:11.216Z,99278.94
2022-08-16T05:56:41.032Z,99279.56
2022-08-16T05:59:10.664Z,99281.63
2022-08-16T06:01:39.334Z,99270.59
2022-08-16T06:04:13.574Z,99274.72
2022-08-16T06:06:57.840Z,99271.47
2022-08-16T06:09:42.639Z,99270.56
2022-08-16T06:12:26.378Z,99275.53
2022-08-16T06:14:59.181Z,99269.69
2022-08-16T06:17:42.609Z,99278.81
2022-08-16T06:20:23.158Z,99274.16
2022-08-16T06:22:58.581Z,99275.47
2022-08-16T06:25:39.629Z,99278.00
2022-08-16T06:28:16.610Z,99277.19
2022-08-16T06:30:45.162Z,99283.19
2022-08-16T06:33:22.155Z,99276.75
2022-08-16T06:35:55.097Z,99281.53
2022-08-16T06:38:32.935Z,99276.69
2022-08-16T06:41:14.066Z,99279.06
2022-08-16T06:43:43.852Z,99277.97
2022-08-16T06:46:39.712Z,99283.69
2022-08-16T06:49:14.785Z,99278.22
2022-08-16T06:52:58.137Z,99275.72
2022-08-16T06:54:56.375Z,99277.13
2022-08-16T06:57:23.659Z,99270.56
2022-08-16T06:59:53.301Z,99266.84
2022-08-16T07:02:36.099Z,99263.25
2022-08-16T07:05:18.240Z,99269.78
2022-08-16T07:07:59.292Z,99272.84
2022-08-16T07:10:27.982Z,99273.28
2022-08-16T07:14:00.660Z,99277.88
2022-08-16T07:16:14.391Z,99282.16
2022-08-16T07:19:10.684Z,99273.69
2022-08-16T07:25:54.556Z,99281.19
2022-08-16T07:28:46.362Z,99294.38
2022-08-16T07:31:14.320Z,99286.03
2022-08-16T07:33:51.236Z,99287.78
2022-08-16T07:36:23.315Z,99283.41
2022-08-16T07:38:52.415Z,99282.13
2022-08-16T07:41:20.144Z,99282.88
2022-08-16T07:43:52.356Z,99274.66
2022-08-16T07:46:39.437Z,99263.34
2022-08-16T07:49:13.622Z,99271.63
2022-08-16T07:51:41.509Z,99274.31
2022-08-16T07:54:16.937Z,99270.25
2022-08-16T07:56:49.338Z,99275.59
2022-08-16T07:59:16.248Z,99271.59
2022-08-16T08:01:43.476Z,99270.66
2022-08-16T08:04:13.969Z,99267.28
2022-08-16T08:06:44.009Z,99269.34
2022-08-16T08:09:14.479Z,99269.69
2022-08-16T08:11:59.745Z,99260.88
2022-08-16T08:14:32.708Z,99264.53
2022-08-16T08:17:08.582Z,99271.25
2022-08-16T08:24:15.476Z,99272.91
2022-08-16T08:26:43.381Z,99273.66
2022-08-16T08:29:12.185Z,99280.47
2022-08-16T08:31:42.212Z,99275.88
2022-08-16T08:34:17.364Z,99276.56
2022-08-16T08:36:45.896Z,99276.34
2022-08-16T08:39:34.345Z,99284.00
2022-08-16T08:42:26.634Z,99277.91
2022-08-16T08:44:55.158Z,99280.94
2022-08-16T08:47:24.678Z,99286.28
2022-08-16T08:49:55.541Z,99279.56
2022-08-16T08:52:34.801Z,99286.63
2022-08-16T08:55:09.498Z,99290.06
2022-08-16T08:57:43.066Z,99281.81
2022-08-16T09:00:26.779Z,99276.31
2022-08-16T09:02:57.900Z,99276.91
2022-08-16T09:05:35.561Z,99281.25
2022-08-16T09:08:06.024Z,99291.88
2022-08-16T09:10:59.258Z,99301.66
2022-08-16T09:13:32.849Z,99294.59
2022-08-16T09:16:02.059Z,99300.00
2022-08-16T09:18:35.885Z,99307.06
2022-08-16T09:21:07.063Z,99302.72
2022-08-16T09:24:09.811Z,99304.97
2022-08-16T09:26:45.714Z,99298.94
2022-08-16T09:29:23.922Z,99300.72
2022-08-16T09:32:07.908Z,99292.22
2022-08-16T09:34:35.226Z,99302.63
2022-08-16T09:37:17.767Z,99294.47
2022-08-16T09:39:50.449Z,99305.06
2022-08-16T09:42:19.030Z,99297.16
2022-08-16T09:45:10.809Z,99297.28
2022-08-16T09:47:57.039Z,99299.06
2022-08-16T09:50:26.766Z,99291.25
2022-08-16T09:53:05.756Z,99285.84
2022-08-16T09:55:33.835Z,99301.88
2022-08-16T09:58:41.779Z,99293.75
2022-08-16T10:01:01.003Z,99296.47
2022-08-16T10:03:30.412Z,99290.78
2022-08-16T10:05:57.606Z,99285.81
2022-08-16T10:08:26.274Z,99289.47
2022-08-16T10:11:12.570Z,99286.06
2022-08-16T10:13:41.414Z,99286.88
2022-08-16T10:19:01.512Z,99286.06
2022-08-16T10:21:29.078Z,99276.94
2022-08-16T10:23:58.670Z,99275.41
2022-08-16T10:27:20.323Z,99284.97
2022-08-16T10:29:12.094Z,99270.69
2022-08-16T10:31:53.250Z,99269.69
2022-08-16T10:34:32.058Z,99270.38
2022-08-16T10:37:35.779Z,99270.03
2022-08-16T10:40:29.378Z,99267.28
2022-08-16T10:43:00.006Z,99275.03
2022-08-16T10:45:28.778Z,99274.53
2022-08-16T10:48:06.353Z,99276.28
2022-08-16T10:55:44.742Z,99270.44
2022-08-16T10:58:17.095Z,99277.06
2022-08-16T11:00:45.980Z,99266.19
2022-08-16T11:06:06.284Z,99268.66
2022-08-16T11:08:41.902Z,99269.84
2022-08-16T11:11:19.108Z,99265.00
2022-08-16T11:14:10.885Z,99269.94
2022-08-16T11:19:22.816Z,99272.16
2022-08-16T11:24:44.573Z,99267.16
2022-08-16T11:27:23.921Z,99269.88
2022-08-16T11:29:55.218Z,99274.31
2022-08-16T11:32:31.864Z,99269.78
2022-08-16T11:35:14.062Z,99261.38
2022-08-16T11:38:46.679Z,99271.91
2022-08-16T11:40:52.458Z,99268.22
2022-08-16T11:43:22.841Z,99269.13
2022-08-16T11:45:50.698Z,99276.78
2022-08-16T11:48:24.725Z,99264.50
2022-08-16T11:50:52.820Z,99270.19
2022-08-16T11:53:22.035Z,99263.09
2022-08-16T11:56:40.077Z,99268.38
2022-08-16T11:59:09.866Z,99263.59
2022-08-16T12:01:44.198Z,99265.31
2022-08-16T12:04:23.031Z,99260.47
2022-08-16T12:06:50.298Z,99266.47
2022-08-16T12:09:20.551Z,99265.31
2022-08-16T12:11:53.234Z,99260.97
2022-08-16T12:14:22.826Z,99258.97
2022-08-16T12:16:55.564Z,99259.25
2022-08-16T12:19:33.874Z,99255.44
2022-08-16T12:22:05.591Z,99248.69
2022-08-16T12:24:52.006Z,99250.00
2022-08-16T12:27:23.098Z,99251.72
2022-08-16T12:29:54.261Z,99250.41
2022-08-16T12:33:16.207Z,99246.97
2022-08-16T12:35:57.821Z,99251.09
2022-08-16T12:39:20.319Z,99263.44
2022-08-16T12:41:50.022Z,99248.84
2022-08-16T12:44:43.107Z,99242.44
2022-08-16T12:47:29.558Z,99249.91
2022-08-16T12:49:58.634Z,99242.50
2022-08-16T12:52:33.484Z,99253.22
2022-08-16T12:55:02.032Z,99239.38
2022-08-16T12:57:36.625Z,99238.03
2022-08-16T13:00:26.273Z,99242.09
2022-08-16T13:02:53.999Z,99239.78
2022-08-16T13:05:20.666Z,99235.75
2022-08-16T13:07:51.897Z,99227.75
2022-08-16T13:10:37.704Z,99231.13
2022-08-16T13:13:06.931Z,99226.81
2022-08-16T13:15:51.527Z,99225.00
2022-08-16T13:18:34.029Z,99217.75
2022-08-16T13:21:06.110Z,99219.69
2022-08-16T13:23:35.646Z,99221.09
2022-08-16T13:26:05.165Z,99215.41
2022-08-16T13:28:35.765Z,99223.56
2022-08-16T13:31:05.553Z,99219.16
2022-08-16T13:33:38.407Z,99220.53
2022-08-16T13:36:26.117Z,99216.75
2022-08-16T13:38:59.887Z,99218.50
2022-08-16T13:41:30.282Z,99222.63
2022-08-16T13:44:00.422Z,99211.25
2022-08-16T13:46:28.751Z,99214.03
2022-08-16T13:48:57.103Z,99209.66
2022-08-16T13:51:29.405Z,99205.88
2022-08-16T13:54:03.613Z,99211.38
2022-08-16T13:56:39.515Z,99195.34
2022-08-16T13:59:16.506Z,99205.16
2022-08-16T14:01:55.257Z,99205.16
2022-08-16T14:04:27.985Z,99208.38
2022-08-16T14:06:58.488Z,99205.34
2022-08-16T14:09:27.039Z,99192.91
2022-08-16T14:12:44.366Z,99198.53
2022-08-16T14:15:13.837Z,99193.88
2022-08-16T14:18:30.903Z,99204.19
2022-08-16T14:20:28.203Z,99191.09
2022-08-16T14:22:58.074Z,99193.31
2022-08-16T14:25:25.675Z,99188.50
2022-08-16T14:27:54.677Z,99184.44
2022-08-16T14:30:22.197Z,99180.16
2022-08-16T14:32:49.856Z,99183.75
2022-08-16T14:35:21.653Z,99177.28
2022-08-16T14:37:57.121Z,99183.03
2022-08-16T14:40:24.246Z,99183.38
2022-08-16T14:42:55.824Z,99170.34
2022-08-16T14:45:26.255Z,99166.84
2022-08-16T14:47:53.844Z,99161.69
2022-08-16T14:50:24.007Z,99167.47
2022-08-16T14:53:04.027Z,99179.16
2022-08-16T14:55:32.546Z,99181.41
2022-08-16T14:57:59.392Z,99179.28
2022-08-16T15:00:33.233Z,99179.84
2022-08-16T15:03:26.761Z,99180.84
2022-08-16T15:05:54.049Z,99174.94
2022-08-16T15:08:20.950Z,99165.41
2022-08-16T15:11:02.912Z,99166.81
2022-08-16T15:13:29.654Z,99166.31
2022-08-16T15:16:02.986Z,99173.38
2022-08-16T15:18:31.933Z,99165.78
2022-08-16T15:21:03.676Z,99167.41
2022-08-16T15:23:33.693Z,99172.91
2022-08-16T15:26:02.824Z,99168.84
2022-08-16T15:28:32.846Z,99165.31
2022-08-16T15:31:06.038Z,99166.38
2022-08-16T15:33:38.971Z,99171.00
2022-08-16T15:36:12.229Z,99181.66
2022-08-16T15:38:58.191Z,99179.16
2022-08-16T15:42:41.519Z,99181.28
2022-08-16T15:45:13.854Z,99189.97
2022-08-16T15:47:40.574Z,99187.53
2022-08-16T15:50:15.607Z,99191.06
2022-08-16T15:52:42.883Z,99188.59
2022-08-16T16:04:08.325Z,99187.91
2022-08-16T16:06:35.041Z,99193.09
2022-08-16T16:09:02.310Z,99185.44
2022-08-16T16:11:28.968Z,99185.44
2022-08-16T16:13:57.860Z,99179.16
2022-08-16T16:16:24.632Z,99182.97
2022-08-16T16:18:52.003Z,99179.16
2022-08-16T16:21:20.239Z,99180.81
2022-08-16T16:23:55.011Z,99181.06
2022-08-16T16:26:24.989Z,99168.81
2022-08-16T16:29:08.784Z,99166.31
2022-08-16T16:31:43.956Z,99163.03
2022-08-16T16:34:32.375Z,99163.03
2022-08-16T16:37:02.685Z,99163.31
2022-08-16T16:39:32.728Z,99163.31
2022-08-16T16:41:59.757Z,99166.50
2022-08-16T16:44:31.918Z,99166.50
2022-08-16T16:47:00.667Z,99160.53
2022-08-16T16:49:27.438Z,99164.31
2022-08-16T16:51:55.240Z,99158.28
2022-08-16T16:54:35.395Z,99160.44
2022-08-16T16:57:04.150Z,99165.03
2022-08-16T16:59:30.843Z,99156.34
2022-08-16T17:02:38.406Z,99160.13
2022-08-16T17:04:47.287Z,99162.28
2022-08-16T17:07:14.216Z,99163.34
2022-08-16T17:10:09.591Z,99163.50
2022-08-16T17:12:47.185Z,99158.44
2022-08-16T17:15:15.084Z,99168.50
2022-08-16T17:18:00.287Z,99158.69
2022-08-16T17:20:29.119Z,99155.38
2022-08-16T17:22:56.454Z,99157.28
2022-08-16T17:25:26.525Z,99162.16
2022-08-16T17:28:59.010Z,99155.91
2022-08-16T17:30:51.744Z,99159.16
2022-08-16T17:33:20.884Z,99166.50
2022-08-16T17:35:55.303Z,99166.50
2022-08-16T17:38:39.031Z,99165.69
2022-08-16T17:41:10.989Z,99160.72
2022-08-16T17:43:44.456Z,99167.25
2022-08-16T17:46:50.831Z,99158.28
2022-08-16T17:48:58.618Z,99157.44
2022-08-16T17:51:27.547Z,99170.22
2022-08-16T17:53:54.343Z,99168.59
2022-08-16T17:56:21.281Z,99160.41
2022-08-16T17:58:47.991Z,99164.72
2022-08-16T18:01:14.789Z,99165.00
2022-08-16T18:04:06.804Z,99174.41
2022-08-16T18:06:33.587Z,99168.72
2022-08-16T18:09:03.418Z,99176.28
2022-08-16T18:11:33.672Z,99175.47
2022-08-16T18:14:00.418Z,99179.53
2022-08-16T18:16:27.074Z,99172.47
2022-08-16T18:18:53.768Z,99167.00
2022-08-16T18:21:39.235Z,99167.25
2022-08-16T18:24:06.156Z,99166.94
2022-08-16T18:26:33.174Z,99169.09
2022-08-16T18:28:59.862Z,99176.09
2022-08-16T18:31:26.701Z,99185.28
2022-08-16T18:33:55.958Z,99177.84
2022-08-16T18:40:56.081Z,99180.88
2022-08-16T18:44:22.400Z,99171.88
2022-08-16T18:46:14.964Z,99174.53
2022-08-16T18:48:41.681Z,99178.88
2022-08-16T18:51:12.909Z,99178.25
2022-08-16T18:55:14.225Z,99187.84
2022-08-16T18:57:41.857Z,99192.25
2022-08-16T19:00:12.311Z,99191.94
2022-08-16T19:02:57.966Z,99195.09
2022-08-16T19:05:29.153Z,99201.59
2022-08-16T19:07:55.813Z,99199.09
2022-08-16T19:10:23.620Z,99205.63
2022-08-16T19:12:50.456Z,99206.13
2022-08-16T19:15:21.222Z,99210.97
2022-08-16T19:17:47.994Z,99215.81
2022-08-16T19:20:17.378Z,99220.13
2022-08-16T19:23:04.613Z,99215.75
2022-08-16T19:25:46.352Z,99225.34
2022-08-16T19:28:50.755Z,99233.31
2022-08-16T19:31:25.483Z,99234.63
2022-08-16T19:33:55.384Z,99230.94
2022-08-16T19:36:31.140Z,99232.75
2022-08-16T19:39:05.405Z,99230.59
2022-08-16T19:41:35.211Z,99232.75
2022-08-16T19:44:02.143Z,99230.97
2022-08-16T19:46:28.823Z,99231.25
2022-08-16T19:48:56.674Z,99235.84
2022-08-16T19:51:23.338Z,99240.13
2022-08-16T19:53:50.005Z,99238.94
2022-08-16T19:56:16.670Z,99246.75
2022-08-16T19:59:01.961Z,99249.16
2022-08-16T20:01:30.104Z,99238.75
2022-08-16T20:03:56.856Z,99238.44
2022-08-16T20:06:37.730Z,99245.97
2022-08-16T20:09:06.060Z,99251.56
2022-08-16T20:11:33.159Z,99257.00
2022-08-16T20:13:59.950Z,99252.63
2022-08-16T20:16:26.630Z,99253.44
2022-08-16T20:18:53.347Z,99252.50
2022-08-16T20:21:20.046Z,99245.56
2022-08-16T20:23:46.751Z,99249.59
2022-08-16T20:26:13.470Z,99255.72
2022-08-16T20:28:54.283Z,99261.38
2022-08-16T20:31:22.500Z,99257.13
2022-08-16T20:33:50.300Z,99259.34
2022-08-16T20:36:17.076Z,99256.53
2022-08-16T20:38:46.664Z,99270.69
2022-08-16T20:41:13.607Z,99269.78
2022-08-16T20:43:40.709Z,99269.28
2022-08-16T20:46:07.597Z,99277.94
2022-08-16T20:48:34.243Z,99270.38
2022-08-16T20:51:01.047Z,99274.59
2022-08-16T20:53:27.738Z,99274.25
2022-08-16T20:55:54.484Z,99272.94
2022-08-16T20:58:21.129Z,99270.94
2022-08-16T21:00:47.960Z,99267.88
2022-08-16T21:03:14.969Z,99271.28
2022-08-16T21:05:42.723Z,99268.47
2022-08-16T21:08:32.833Z,99275.41
2022-08-16T21:10:56.862Z,99273.56
2022-08-16T21:13:25.557Z,99273.06
2022-08-16T21:15:52.304Z,99284.16
2022-08-16T21:18:18.958Z,99278.88
2022-08-16T21:20:45.601Z,99280.19
2022-08-16T21:23:12.290Z,99278.50
2022-08-16T21:25:42.135Z,99281.09
2022-08-16T21:28:38.845Z,99282.16
2022-08-16T21:31:09.707Z,99276.28
2022-08-16T21:33:36.811Z,99284.09
2022-08-16T21:36:03.679Z,99282.91
2022-08-16T21:38:31.115Z,99289.28
2022-08-16T21:40:59.283Z,99292.13
2022-08-16T21:43:31.715Z,99290.56
2022-08-16T21:45:59.914Z,99285.94
2022-08-16T21:48:34.752Z,99297.66
2022-08-16T21:51:09.378Z,99293.19
2022-08-16T21:53:36.221Z,99290.81
2022-08-16T21:56:05.214Z,99297.53
2022-08-16T21:58:32.507Z,99292.72
2022-08-16T22:01:00.331Z,99292.59
2022-08-16T22:03:27.245Z,99298.13
2022-08-16T22:06:11.678Z,99295.06
2022-08-16T22:08:50.470Z,99287.03
2022-08-16T22:11:25.129Z,99293.63
2022-08-16T22:13:58.926Z,99291.53
2022-08-16T22:16:32.206Z,99293.47
2022-08-16T22:18:59.565Z,99295.16
2022-08-16T22:21:26.407Z,99294.31
2022-08-16T22:23:55.129Z,99295.97
2022-08-16T22:26:29.977Z,99301.38
2022-08-16T22:28:59.399Z,99299.59
2022-08-16T22:31:27.308Z,99300.91
2022-08-16T22:33:54.861Z,99296.78
2022-08-16T22:36:21.562Z,99304.78
2022-08-16T22:38:55.737Z,99297.94
2022-08-16T22:41:26.161Z,99306.63
2022-08-16T22:43:53.088Z,99309.34
2022-08-16T22:46:19.833Z,99318.19
2022-08-16T22:48:49.892Z,99313.34
2022-08-16T22:51:17.090Z,99310.88
2022-08-16T22:53:43.770Z,99308.50
2022-08-16T22:56:10.421Z,99307.66
2022-08-16T22:58:37.453Z,99305.19
2022-08-16T23:01:06.662Z,99312.38
2022-08-16T23:03:33.561Z,99313.19
2022-08-16T23:06:00.736Z,99304.56
2022-08-16T23:08:39.541Z,99304.69
2022-08-16T23:11:13.348Z,99303.84
2022-08-16T23:13:50.080Z,99312.59
2022-08-16T23:16:33.700Z,99298.56
2022-08-16T23:19:06.875Z,99301.66
2022-08-16T23:21:33.822Z,99298.28
2022-08-16T23:24:01.050Z,99289.56
2022-08-16T23:26:44.235Z,99297.84
2022-08-16T23:29:24.451Z,99294.56
2022-08-16T23:31:57.929Z,99301.53
2022-08-16T23:34:26.650Z,99298.72
2022-08-16T23:36:53.369Z,99295.94
2022-08-16T23:39:20.040Z,99293.53
2022-08-16T23:41:46.685Z,99303.53
2022-08-16T23:44:56.779Z,99302.47
2022-08-16T23:47:01.119Z,99301.38
2022-08-16T23:50:02.532Z,99294.75
2022-08-16T23:52:14.563Z,99299.13
2022-08-16T23:54:41.266Z,99297.72
2022-08-16T23:57:08.347Z,99288.03
2022-08-16T23:59:52.224Z,99285.53
